createdAt,value
2023-03-22T00:01:28.721Z,100.00
2023-03-22T00:03:59.254Z,100.00
2023-03-22T00:06:28.105Z,100.00
2023-03-22T00:08:56.642Z,100.00
2023-03-22T00:11:26.004Z,100.00
2023-03-22T00:13:55.477Z,100.00
2023-03-22T00:16:23.914Z,100.00
2023-03-22T00:18:52.375Z,100.00
2023-03-22T00:21:20.574Z,100.00
2023-03-22T00:23:50.916Z,100.00
2023-03-22T00:26:19.090Z,100.00
2023-03-22T00:28:49.642Z,100.00
2023-03-22T00:31:20.185Z,100.00
2023-03-22T00:33:48.318Z,100.00
2023-03-22T00:36:16.855Z,100.00
2023-03-22T00:38:45.485Z,100.00
2023-03-22T00:41:16.277Z,100.00
2023-03-22T00:43:46.822Z,100.00
2023-03-22T00:46:16.196Z,100.00
2023-03-22T00:48:46.390Z,100.00
2023-03-22T00:51:15.931Z,100.00
2023-03-22T00:53:45.051Z,100.00
2023-03-22T00:56:15.996Z,100.00
2023-03-22T00:59:06.846Z,100.00
2023-03-22T01:01:35.292Z,100.00
2023-03-22T01:04:05.507Z,100.00
2023-03-22T01:06:34.191Z,100.00
2023-03-22T01:09:02.607Z,100.00
2023-03-22T01:11:31.215Z,100.00
2023-03-22T01:13:59.609Z,100.00
2023-03-22T01:16:28.010Z,100.00
2023-03-22T01:18:57.104Z,100.00
2023-03-22T01:21:26.991Z,100.00
2023-03-22T01:23:57.491Z,100.00
2023-03-22T01:26:25.763Z,100.00
2023-03-22T01:28:54.069Z,100.00
2023-03-22T01:31:22.227Z,100.00
2023-03-22T01:33:50.819Z,100.00
2023-03-22T01:36:21.595Z,100.00
2023-03-22T01:38:51.512Z,100.00
2023-03-22T01:41:20.436Z,100.00
2023-03-22T01:44:11.288Z,100.00
2023-03-22T01:46:40.004Z,100.00
2023-03-22T01:49:12.669Z,100.00
2023-03-22T01:51:43.888Z,100.00
2023-03-22T01:54:31.504Z,100.00
2023-03-22T01:57:01.920Z,100.00
2023-03-22T01:59:38.114Z,100.00
2023-03-22T02:02:25.591Z,100.00
2023-03-22T02:05:01.208Z,100.00
2023-03-22T02:07:31.970Z,100.00
2023-03-22T02:10:05.013Z,100.00
2023-03-22T02:12:58.883Z,100.00
2023-03-22T02:16:09.630Z,100.00
2023-03-22T02:19:31.896Z,100.00
2023-03-22T02:22:29.058Z,100.00
2023-03-22T02:25:22.091Z,100.00
2023-03-22T02:28:18.624Z,100.00
2023-03-22T02:31:18.096Z,100.00
2023-03-22T02:34:27.248Z,100.00
2023-03-22T02:37:13.371Z,100.00
2023-03-22T02:39:46.448Z,100.00
2023-03-22T02:42:28.600Z,100.00
2023-03-22T02:45:05.655Z,100.00
2023-03-22T02:47:42.298Z,100.00
2023-03-22T02:50:16.636Z,100.00
2023-03-22T02:52:51.163Z,100.00
2023-03-22T02:55:25.374Z,100.00
2023-03-22T02:57:55.534Z,100.00
2023-03-22T03:00:27.065Z,100.00
2023-03-22T03:02:58.024Z,100.00
2023-03-22T03:05:29.194Z,100.00
2023-03-22T03:08:01.522Z,100.00
2023-03-22T03:10:34.415Z,100.00
2023-03-22T03:13:02.694Z,100.00
2023-03-22T03:15:31.173Z,100.00
2023-03-22T03:18:17.347Z,100.00
2023-03-22T03:20:55.474Z,100.00
2023-03-22T03:23:32.294Z,100.00
2023-03-22T03:26:09.029Z,100.00
2023-03-22T03:28:44.857Z,100.00
2023-03-22T03:31:26.415Z,100.00
2023-03-22T03:34:03.739Z,100.00
2023-03-22T03:36:38.004Z,100.00
2023-03-22T03:39:11.037Z,100.00
2023-03-22T03:41:43.456Z,100.00
2023-03-22T03:44:12.655Z,100.00
2023-03-22T03:46:41.876Z,100.00
2023-03-22T03:49:12.670Z,100.00
2023-03-22T03:51:49.517Z,100.00
2023-03-22T03:54:17.772Z,100.00
2023-03-22T03:56:48.614Z,100.00
2023-03-22T03:59:17.462Z,100.00
2023-03-22T04:01:52.372Z,100.00
2023-03-22T04:04:29.521Z,100.00
2023-03-22T04:09:51.121Z,100.00
2023-03-22T04:12:29.421Z,100.00
2023-03-22T04:15:15.060Z,100.00
2023-03-22T04:17:49.650Z,100.00
2023-03-22T04:20:19.621Z,100.00
2023-03-22T04:22:49.217Z,100.00
2023-03-22T04:25:19.126Z,100.00
2023-03-22T04:28:01.320Z,100.00
2023-03-22T04:30:36.136Z,100.00
2023-03-22T04:33:23.719Z,100.00
2023-03-22T04:36:11.316Z,100.00
2023-03-22T04:38:52.432Z,100.00
2023-03-22T04:41:25.900Z,100.00
2023-03-22T04:43:57.789Z,100.00
2023-03-22T04:46:26.637Z,100.00
2023-03-22T04:49:03.506Z,100.00
2023-03-22T04:51:35.271Z,100.00
2023-03-22T04:54:30.211Z,100.00
2023-03-22T04:57:03.016Z,100.00
2023-03-22T04:59:36.972Z,100.00
2023-03-22T05:02:05.220Z,100.00
2023-03-22T05:04:41.157Z,100.00
2023-03-22T05:07:21.806Z,100.00
2023-03-22T05:09:54.854Z,100.00
2023-03-22T05:12:24.981Z,100.00
2023-03-22T05:15:08.023Z,100.00
2023-03-22T05:17:39.524Z,100.00
2023-03-22T05:20:10.202Z,100.00
2023-03-22T05:22:41.503Z,100.00
2023-03-22T05:25:12.019Z,100.00
2023-03-22T05:27:46.241Z,100.00
2023-03-22T05:30:34.792Z,100.00
2023-03-22T05:33:21.855Z,100.00
2023-03-22T05:35:53.275Z,100.00
2023-03-22T05:38:24.696Z,100.00
2023-03-22T05:40:55.709Z,100.00
2023-03-22T05:43:28.335Z,100.00
2023-03-22T05:45:56.891Z,100.00
2023-03-22T05:48:36.173Z,100.00
2023-03-22T05:51:09.702Z,100.00
2023-03-22T05:53:38.293Z,100.00
2023-03-22T05:56:16.943Z,100.00
2023-03-22T05:58:49.054Z,100.00
2023-03-22T06:01:23.110Z,100.00
2023-03-22T06:04:15.712Z,100.00
2023-03-22T06:07:02.101Z,100.00
2023-03-22T06:10:00.015Z,100.00
2023-03-22T06:12:31.542Z,100.00
2023-03-22T06:15:16.339Z,100.00
2023-03-22T06:17:55.312Z,100.00
2023-03-22T06:20:27.571Z,100.00
2023-03-22T06:23:01.945Z,100.00
2023-03-22T06:25:30.270Z,100.00
2023-03-22T06:27:58.375Z,100.00
2023-03-22T06:30:28.995Z,100.00
2023-03-22T06:33:19.930Z,100.00
2023-03-22T06:35:53.191Z,100.00
2023-03-22T06:38:29.667Z,100.00
2023-03-22T06:40:58.835Z,100.00
2023-03-22T06:43:29.939Z,100.00
2023-03-22T06:46:10.947Z,100.00
2023-03-22T06:48:49.021Z,100.00
2023-03-22T06:51:18.429Z,100.00
2023-03-22T06:53:50.225Z,100.00
2023-03-22T06:56:18.814Z,100.00
2023-03-22T06:58:51.933Z,100.00
2023-03-22T07:01:21.966Z,100.00
2023-03-22T07:03:50.937Z,100.00
2023-03-22T07:06:23.119Z,100.00
2023-03-22T07:08:52.518Z,100.00
2023-03-22T07:11:28.820Z,100.00
2023-03-22T07:14:03.462Z,100.00
2023-03-22T07:16:53.456Z,100.00
2023-03-22T07:19:24.273Z,100.00
2023-03-22T07:21:53.014Z,100.00
2023-03-22T07:24:21.950Z,100.00
2023-03-22T07:26:53.584Z,100.00
2023-03-22T07:29:25.636Z,100.00
2023-03-22T07:31:55.484Z,100.00
2023-03-22T07:34:27.621Z,100.00
2023-03-22T07:37:05.366Z,100.00
2023-03-22T07:39:33.973Z,100.00
2023-03-22T07:42:02.392Z,100.00
2023-03-22T07:44:39.217Z,100.00
2023-03-22T07:47:37.824Z,100.00
2023-03-22T07:50:20.506Z,100.00
2023-03-22T07:52:54.975Z,100.00
2023-03-22T07:55:25.272Z,100.00
2023-03-22T07:57:53.915Z,100.00
2023-03-22T08:00:23.114Z,100.00
2023-03-22T08:03:03.904Z,100.00
2023-03-22T08:05:49.424Z,100.00
2023-03-22T08:08:18.128Z,100.00
2023-03-22T08:10:50.692Z,99.06
2023-03-22T08:13:19.424Z,97.17
2023-03-22T08:15:49.903Z,95.90
2023-03-22T08:18:21.998Z,91.20
2023-03-22T08:20:54.728Z,92.93
2023-03-22T08:23:40.896Z,90.80
2023-03-22T08:26:30.556Z,88.83
2023-03-22T08:29:05.298Z,86.46
2023-03-22T08:31:36.434Z,80.87
2023-03-22T08:34:06.414Z,81.54
2023-03-22T08:36:38.944Z,75.75
2023-03-22T08:39:09.967Z,74.37
2023-03-22T08:41:56.298Z,71.04
2023-03-22T08:44:27.523Z,71.61
2023-03-22T08:46:56.532Z,74.82
2023-03-22T08:49:27.212Z,75.23
2023-03-22T08:52:01.745Z,76.89
2023-03-22T08:54:59.799Z,77.60
2023-03-22T08:57:50.656Z,77.45
2023-03-22T09:00:42.286Z,78.09
2023-03-22T09:03:24.037Z,76.29
2023-03-22T09:05:54.030Z,76.69
2023-03-22T09:10:57.474Z,74.03
2023-03-22T09:13:30.627Z,73.63
2023-03-22T09:16:02.397Z,68.70
2023-03-22T09:18:33.860Z,64.00
2023-03-22T09:21:07.945Z,64.56
2023-03-22T09:23:47.628Z,69.21
2023-03-22T09:26:20.037Z,70.79
2023-03-22T09:28:53.351Z,71.54
2023-03-22T09:31:22.435Z,69.77
2023-03-22T09:34:02.332Z,67.61
2023-03-22T09:36:32.394Z,66.74
2023-03-22T09:39:06.710Z,69.17
2023-03-22T09:41:44.603Z,67.01
2023-03-22T09:44:17.000Z,63.87
2023-03-22T09:46:49.625Z,67.34
2023-03-22T09:49:21.252Z,66.45
2023-03-22T09:51:51.781Z,64.07
2023-03-22T09:54:28.222Z,66.54
2023-03-22T09:57:06.533Z,62.65
2023-03-22T09:59:40.963Z,59.94
2023-03-22T10:02:34.016Z,59.45
2023-03-22T10:05:13.193Z,60.52
2023-03-22T10:07:56.437Z,61.99
2023-03-22T10:10:26.694Z,58.27
2023-03-22T10:13:01.832Z,54.73
2023-03-22T10:15:34.350Z,52.14
2023-03-22T10:18:09.146Z,49.97
2023-03-22T10:20:43.231Z,47.32
2023-03-22T10:23:17.755Z,45.93
2023-03-22T10:25:46.023Z,45.00
2023-03-22T10:28:22.281Z,45.79
2023-03-22T10:30:54.829Z,46.25
2023-03-22T10:33:30.196Z,45.29
2023-03-22T10:35:58.792Z,45.80
2023-03-22T10:38:30.857Z,45.97
2023-03-22T10:41:01.480Z,44.58
2023-03-22T10:43:34.049Z,45.41
2023-03-22T10:46:05.357Z,44.23
2023-03-22T10:48:39.096Z,42.99
2023-03-22T10:51:09.071Z,42.43
2023-03-22T10:53:40.814Z,43.90
2023-03-22T10:56:14.591Z,44.15
2023-03-22T10:58:44.303Z,45.81
2023-03-22T11:01:14.727Z,44.77
2023-03-22T11:03:50.204Z,43.61
2023-03-22T11:06:21.422Z,43.38
2023-03-22T11:08:51.467Z,44.53
2023-03-22T11:11:23.927Z,45.09
2023-03-22T11:14:01.049Z,44.29
2023-03-22T11:16:30.709Z,42.67
2023-03-22T11:19:02.281Z,42.34
2023-03-22T11:21:33.523Z,38.74
2023-03-22T11:24:04.921Z,40.88
2023-03-22T11:26:39.210Z,41.61
2023-03-22T11:29:17.828Z,40.00
2023-03-22T11:31:56.070Z,40.73
2023-03-22T11:34:27.720Z,38.73
2023-03-22T11:36:57.917Z,38.49
2023-03-22T11:39:28.960Z,37.64
2023-03-22T11:42:01.713Z,37.97
2023-03-22T11:44:38.073Z,38.52
2023-03-22T11:47:20.723Z,37.36
2023-03-22T11:49:56.452Z,38.51
2023-03-22T11:52:27.853Z,38.49
2023-03-22T11:54:57.083Z,40.06
2023-03-22T11:57:31.556Z,37.61
2023-03-22T12:00:11.753Z,36.97
2023-03-22T12:02:47.439Z,37.04
2023-03-22T12:05:21.725Z,38.79
2023-03-22T12:07:56.093Z,37.08
2023-03-22T12:10:29.813Z,37.17
2023-03-22T12:13:02.695Z,36.68
2023-03-22T12:15:39.524Z,36.10
2023-03-22T12:18:13.563Z,35.55
2023-03-22T12:20:49.909Z,35.28
2023-03-22T12:23:21.505Z,37.22
2023-03-22T12:25:56.620Z,39.43
2023-03-22T12:28:29.880Z,41.65
2023-03-22T12:31:00.686Z,40.62
2023-03-22T12:33:32.409Z,40.10
2023-03-22T12:36:03.856Z,40.75
2023-03-22T12:38:40.873Z,39.12
2023-03-22T12:41:13.306Z,40.42
2023-03-22T12:43:48.027Z,40.97
2023-03-22T12:46:25.191Z,41.20
2023-03-22T12:49:01.438Z,41.63
2023-03-22T12:51:29.741Z,41.20
2023-03-22T12:54:01.738Z,41.92
2023-03-22T12:56:39.213Z,42.39
2023-03-22T12:59:17.983Z,42.21
2023-03-22T13:01:54.872Z,42.66
2023-03-22T13:04:43.346Z,43.02
2023-03-22T13:07:15.537Z,41.70
2023-03-22T13:09:45.169Z,42.65
2023-03-22T13:12:32.827Z,42.28
2023-03-22T13:15:18.716Z,42.14
2023-03-22T13:17:51.236Z,41.66
2023-03-22T13:20:34.242Z,42.13
2023-03-22T13:23:09.911Z,41.50
2023-03-22T13:25:39.962Z,42.93
2023-03-22T13:28:26.342Z,44.42
2023-03-22T13:30:56.695Z,44.57
2023-03-22T13:33:30.072Z,45.42
2023-03-22T13:36:01.530Z,45.08
2023-03-22T13:38:34.249Z,46.03
2023-03-22T13:41:05.220Z,46.15
2023-03-22T13:43:35.425Z,44.71
2023-03-22T13:46:14.274Z,43.56
2023-03-22T13:49:18.239Z,43.74
2023-03-22T13:51:49.732Z,43.91
2023-03-22T13:54:24.055Z,43.93
2023-03-22T13:56:57.180Z,43.80
2023-03-22T13:59:27.539Z,43.73
2023-03-22T14:02:00.367Z,42.99
2023-03-22T14:04:35.078Z,43.93
2023-03-22T14:07:13.473Z,44.74
2023-03-22T14:12:04.848Z,44.94
2023-03-22T14:14:41.259Z,45.17
2023-03-22T14:17:19.341Z,45.94
2023-03-22T14:19:48.417Z,47.55
